Time;durP1;ratioP1;P1;durP2;ratioP2;P2;SDS_P1;SDS_P2;PMS_P1;PMS_P2;Temp;Humidity;BMP_temperature;BMP_pressure;BME280_temperature;BME280_humidity;BME280_pressure;Samples;Min_cycle;Max_cycle;Signal;HPM_P1;HPM_P2
2022/03/10 00:02:07;;;;;;;14.70;13.07;;;5.00;55.70;;;;;;5024469;28;20577;-87
2022/03/10 00:04:36;;;;;;;17.13;13.63;;;5.00;55.50;;;;;;5024244;28;20212;-87
2022/03/10 00:07:03;;;;;;;16.10;13.63;;;5.00;56.60;;;;;;5007145;28;20193;-87
2022/03/10 00:09:33;;;;;;;16.40;13.17;;;4.80;55.90;;;;;;5022265;28;20185;-87
2022/03/10 00:12:00;;;;;;;15.57;13.23;;;4.90;56.00;;;;;;5024425;28;20197;-87
2022/03/10 00:14:26;;;;;;;15.97;13.40;;;4.60;56.70;;;;;;5022903;28;20193;-87
2022/03/10 00:16:53;;;;;;;15.93;13.53;;;4.60;56.90;;;;;;5038391;28;20233;-87
2022/03/10 00:19:19;;;;;;;15.53;13.93;;;4.70;56.70;;;;;;5023091;28;20209;-87
2022/03/10 00:21:46;;;;;;;16.27;14.03;;;4.70;57.30;;;;;;5013940;28;20249;-87
2022/03/10 00:24:12;;;;;;;17.13;13.37;;;4.70;56.30;;;;;;5014156;28;20236;-87
2022/03/10 00:26:38;;;;;;;16.47;13.90;;;4.70;56.50;;;;;;5014212;28;20186;-87
2022/03/10 00:29:04;;;;;;;15.47;12.87;;;4.60;56.80;;;;;;5012773;28;20188;-87
2022/03/10 00:31:30;;;;;;;14.87;12.67;;;4.70;56.80;;;;;;5014247;28;20197;-87
2022/03/10 00:33:56;;;;;;;14.33;12.63;;;4.70;56.40;;;;;;5013524;28;20201;-87
2022/03/10 00:36:22;;;;;;;15.93;13.47;;;4.80;56.10;;;;;;5019692;28;20209;-87
2022/03/10 00:38:48;;;;;;;16.00;14.03;;;4.80;55.70;;;;;;5029400;28;20197;-87
2022/03/10 00:41:14;;;;;;;14.60;13.10;;;4.70;56.00;;;;;;5023381;28;20276;-87
2022/03/10 00:43:40;;;;;;;15.93;12.17;;;4.70;56.30;;;;;;5015925;28;20403;-87
2022/03/10 00:46:06;;;;;;;17.67;13.10;;;4.70;56.30;;;;;;5022629;28;20211;-87
2022/03/10 00:48:32;;;;;;;16.10;13.37;;;4.50;57.30;;;;;;5021458;28;20698;-87
2022/03/10 00:50:58;;;;;;;15.00;12.33;;;4.40;56.40;;;;;;5021250;28;20217;-87
2022/03/10 00:53:23;;;;;;;14.70;13.23;;;4.10;57.80;;;;;;5021922;28;20190;-87
2022/03/10 00:55:49;;;;;;;15.20;12.90;;;4.10;57.90;;;;;;5022061;28;20264;-87
2022/03/10 00:58:15;;;;;;;17.67;14.43;;;4.20;58.00;;;;;;5022683;28;20220;-87
2022/03/10 01:00:40;;;;;;;17.33;13.73;;;4.20;57.70;;;;;;5021788;28;20224;-87
2022/03/10 01:03:06;;;;;;;19.40;15.03;;;4.30;57.50;;;;;;5022566;28;20189;-87
2022/03/10 01:05:33;;;;;;;15.83;14.03;;;4.20;57.30;;;;;;5025071;28;20257;-87
2022/03/10 01:07:59;;;;;;;17.40;13.90;;;4.30;57.70;;;;;;5022048;28;20220;-87
2022/03/10 01:10:25;;;;;;;17.77;14.03;;;4.20;57.80;;;;;;5022642;28;20286;-87
2022/03/10 01:12:51;;;;;;;16.00;13.63;;;4.20;57.70;;;;;;5022150;28;20177;-88
2022/03/10 01:15:20;;;;;;;16.03;14.10;;;4.30;58.20;;;;;;5019931;28;20204;-87
2022/03/10 01:17:46;;;;;;;16.90;14.67;;;4.30;57.50;;;;;;5021663;28;20224;-87
2022/03/10 01:20:12;;;;;;;16.77;13.40;;;4.30;57.40;;;;;;5021628;28;20201;-87
2022/03/10 01:22:39;;;;;;;16.50;13.80;;;4.30;57.60;;;;;;5025595;28;20185;-87
2022/03/10 01:25:06;;;;;;;15.60;13.30;;;4.40;58.00;;;;;;5023108;28;20271;-87
2022/03/10 01:27:32;;;;;;;15.30;13.50;;;4.30;57.80;;;;;;5024677;28;20292;-87
2022/03/10 01:29:57;;;;;;;16.10;13.97;;;4.30;57.70;;;;;;5023614;28;20215;-87
2022/03/10 01:32:25;;;;;;;14.73;13.13;;;4.30;57.70;;;;;;5022890;28;20250;-87
2022/03/10 01:34:52;;;;;;;16.67;13.83;;;4.30;57.30;;;;;;5023888;28;20197;-87
2022/03/10 01:37:19;;;;;;;16.53;13.60;;;4.30;57.70;;;;;;5022710;28;20643;-87
2022/03/10 01:39:45;;;;;;;15.57;13.83;;;4.30;58.10;;;;;;5017364;28;20280;-87
2022/03/10 01:42:11;;;;;;;16.23;13.60;;;4.30;58.10;;;;;;5019234;28;20220;-87
2022/03/10 01:44:36;;;;;;;14.40;12.13;;;4.20;58.10;;;;;;5017180;28;20197;-87
2022/03/10 01:47:03;;;;;;;17.30;13.67;;;4.20;57.70;;;;;;5018831;28;20209;-87
2022/03/10 01:49:29;;;;;;;16.27;13.73;;;4.20;58.00;;;;;;5016828;28;20193;-87
2022/03/10 01:51:55;;;;;;;16.73;13.53;;;4.10;58.40;;;;;;5017405;28;20213;-87
2022/03/10 01:54:21;;;;;;;16.13;14.43;;;4.20;58.10;;;;;;5017269;28;20216;-87
2022/03/10 01:56:47;;;;;;;16.27;14.13;;;4.10;58.40;;;;;;5017471;28;20197;-87
2022/03/10 01:59:14;;;;;;;16.43;14.63;;;4.10;58.60;;;;;;5018557;28;20182;-87
2022/03/10 02:01:40;;;;;;;16.63;13.67;;;4.20;58.60;;;;;;5037769;28;20197;-87
2022/03/10 02:04:05;;;;;;;16.20;14.23;;;4.10;58.40;;;;;;5018675;28;20660;-88
2022/03/10 02:06:31;;;;;;;19.53;14.77;;;4.10;58.20;;;;;;5021123;28;20193;-88
2022/03/10 02:11:42;;;;;;;17.23;13.90;;;4.10;58.40;;;;;;5027745;28;20224;-87
2022/03/10 02:19:36;;;;;;;18.73;15.77;;;4.20;58.70;;;;;;5018314;28;20251;-87
2022/03/10 02:22:08;;;;;;;17.20;15.40;;;4.30;58.70;;;;;;5017594;28;20219;-87
2022/03/10 02:24:36;;;;;;;18.27;15.03;;;4.30;58.50;;;;;;5018647;28;20193;-88
2022/03/10 02:27:19;;;;;;;17.23;14.73;;;4.20;57.80;;;;;;5016931;28;20189;-87
2022/03/10 02:29:49;;;;;;;18.37;16.37;;;4.20;58.00;;;;;;5018180;28;20194;-87
2022/03/10 02:32:16;;;;;;;15.80;14.13;;;4.10;58.10;;;;;;5018042;28;20240;-87
2022/03/10 02:34:43;;;;;;;17.67;15.20;;;4.10;58.20;;;;;;5020851;28;20193;-87
2022/03/10 02:37:10;;;;;;;16.33;13.73;;;4.00;58.40;;;;;;5018068;28;20213;-87
2022/03/10 02:39:36;;;;;;;17.27;14.67;;;3.90;58.60;;;;;;5016401;28;20200;-87
2022/03/10 02:42:03;;;;;;;15.93;13.87;;;3.70;58.80;;;;;;5020717;28;20205;-87
2022/03/10 02:44:29;;;;;;;16.57;14.67;;;3.70;59.20;;;;;;5016036;28;20628;-87
2022/03/10 02:46:55;;;;;;;16.03;14.10;;;3.60;59.10;;;;;;5017196;28;20224;-87
2022/03/10 02:49:21;;;;;;;18.43;15.20;;;3.60;59.00;;;;;;5017604;28;20204;-87
2022/03/10 02:51:46;;;;;;;20.40;14.83;;;3.60;59.00;;;;;;5016499;28;20216;-87
2022/03/10 02:54:12;;;;;;;19.17;15.27;;;3.60;59.00;;;;;;5017692;28;20217;-87
2022/03/10 02:56:38;;;;;;;20.07;14.33;;;3.50;59.30;;;;;;5019340;28;20276;-87
2022/03/10 02:59:04;;;;;;;16.97;15.17;;;3.60;59.30;;;;;;5022488;28;20575;-88
2022/03/10 03:01:30;;;;;;;17.67;14.87;;;3.60;59.30;;;;;;5029676;28;20684;-87
2022/03/10 03:03:56;;;;;;;17.73;15.67;;;3.60;58.90;;;;;;5018288;28;20186;-87
2022/03/10 03:06:22;;;;;;;18.20;15.00;;;3.60;58.90;;;;;;5015817;28;20203;-87
2022/03/10 03:08:47;;;;;;;18.40;14.60;;;3.50;59.70;;;;;;5006531;28;20300;-87
2022/03/10 03:11:13;;;;;;;16.70;14.27;;;3.50;59.70;;;;;;5017152;28;20223;-87
2022/03/10 03:13:39;;;;;;;17.87;14.90;;;3.50;59.90;;;;;;5017239;28;20653;-87
2022/03/10 03:16:05;;;;;;;17.37;15.57;;;3.50;59.70;;;;;;5019229;28;20276;-88
2022/03/10 03:18:30;;;;;;;22.83;14.87;;;3.50;59.40;;;;;;5024494;28;20213;-88
2022/03/10 03:20:57;;;;;;;18.20;14.97;;;3.50;59.70;;;;;;5019047;28;20221;-87
2022/03/10 03:23:26;;;;;;;17.57;14.83;;;3.40;59.60;;;;;;5017998;28;20280;-88
2022/03/10 03:25:52;;;;;;;15.60;13.27;;;3.40;59.70;;;;;;5026382;28;20256;-88
2022/03/10 03:28:21;;;;;;;18.50;14.67;;;3.40;59.90;;;;;;5016929;28;20276;-88
2022/03/10 03:30:47;;;;;;;15.87;14.17;;;3.40;59.70;;;;;;5016728;28;20205;-87
2022/03/10 03:33:13;;;;;;;15.67;14.00;;;3.30;60.40;;;;;;5012087;28;20201;-87
2022/03/10 03:35:39;;;;;;;17.77;14.63;;;3.30;59.80;;;;;;5007087;28;20255;-87
2022/03/10 03:38:04;;;;;;;16.40;13.93;;;3.20;59.90;;;;;;5016139;28;20287;-88
2022/03/10 03:40:30;;;;;;;16.13;14.37;;;3.20;60.50;;;;;;5016133;28;20252;-87
2022/03/10 03:42:56;;;;;;;17.03;14.43;;;3.20;60.30;;;;;;5011635;28;20194;-87
2022/03/10 03:45:22;;;;;;;17.77;13.63;;;3.20;60.30;;;;;;5016982;28;20239;-87
2022/03/10 03:47:48;;;;;;;18.67;14.53;;;3.30;60.20;;;;;;5012170;28;20281;-88
2022/03/10 03:50:14;;;;;;;18.83;14.60;;;3.30;60.20;;;;;;5011101;28;20249;-88
2022/03/10 03:52:40;;;;;;;17.50;15.13;;;3.20;60.20;;;;;;5015580;28;20221;-87
2022/03/10 03:55:07;;;;;;;20.33;15.40;;;3.20;59.60;;;;;;5010001;28;20776;-88
2022/03/10 03:57:32;;;;;;;16.17;13.90;;;3.20;59.70;;;;;;5009457;28;20271;-87
2022/03/10 03:59:58;;;;;;;16.90;14.60;;;3.20;59.80;;;;;;5007587;28;20209;-87
2022/03/10 04:02:23;;;;;;;18.10;14.07;;;3.10;60.40;;;;;;5011644;28;20197;-88
2022/03/10 04:04:49;;;;;;;17.13;14.27;;;3.10;60.30;;;;;;5009831;28;20581;-88
2022/03/10 04:07:15;;;;;;;18.27;14.57;;;3.10;60.30;;;;;;5013434;28;20231;-87
2022/03/10 04:09:41;;;;;;;15.60;13.90;;;3.10;60.70;;;;;;5022348;28;20196;-87
2022/03/10 04:12:07;;;;;;;17.07;14.03;;;3.10;60.70;;;;;;5022361;28;20213;-87
2022/03/10 04:14:33;;;;;;;19.50;14.83;;;3.10;61.10;;;;;;5024936;28;20195;-87
2022/03/10 04:16:59;;;;;;;19.40;15.17;;;3.00;60.60;;;;;;5022092;28;20233;-88
2022/03/10 04:19:24;;;;;;;22.60;15.40;;;3.00;60.40;;;;;;5022799;28;20281;-87
2022/03/10 04:21:50;;;;;;;16.30;13.90;;;3.00;60.60;;;;;;5022724;28;20219;-87
2022/03/10 04:24:16;;;;;;;15.90;14.20;;;3.00;60.40;;;;;;5034012;28;20221;-87
2022/03/10 04:26:42;;;;;;;16.43;14.33;;;3.00;60.30;;;;;;5020628;28;20253;-87
2022/03/10 04:29:08;;;;;;;16.80;15.00;;;3.00;60.80;;;;;;5015555;28;20193;-87
2022/03/10 04:31:33;;;;;;;20.20;14.53;;;2.90;60.80;;;;;;5020847;28;20214;-87
2022/03/10 04:33:59;;;;;;;17.53;15.00;;;2.80;60.80;;;;;;5020835;28;20185;-87
2022/03/10 04:36:25;;;;;;;16.50;14.50;;;2.80;61.50;;;;;;5019264;28;20221;-87
2022/03/10 04:38:51;;;;;;;17.83;14.40;;;2.80;61.50;;;;;;5021422;28;20197;-87
2022/03/10 04:41:17;;;;;;;17.67;14.03;;;2.80;61.50;;;;;;5009512;28;20217;-87
2022/03/10 04:43:43;;;;;;;19.40;15.43;;;2.70;62.50;;;;;;5017958;28;20201;-87
2022/03/10 04:46:08;;;;;;;16.40;14.33;;;2.70;62.50;;;;;;5017165;28;20846;-87
2022/03/10 04:48:34;;;;;;;16.73;14.43;;;2.60;62.40;;;;;;5012915;28;20200;-87
2022/03/10 04:51:00;;;;;;;20.20;14.70;;;2.70;62.50;;;;;;5016730;28;20576;-88
2022/03/10 04:53:26;;;;;;;17.70;15.27;;;2.60;62.30;;;;;;5015338;28;20621;-87
2022/03/10 04:55:52;;;;;;;19.07;15.27;;;2.70;61.80;;;;;;5020214;28;20213;-87
2022/03/10 04:58:18;;;;;;;17.97;15.53;;;2.60;62.50;;;;;;5016432;28;20189;-87
2022/03/10 05:00:44;;;;;;;18.33;14.83;;;2.60;61.90;;;;;;5020515;28;20202;-88
2022/03/10 05:03:09;;;;;;;19.10;15.00;;;2.60;61.80;;;;;;5020646;28;20189;-88
2022/03/10 05:05:35;;;;;;;17.67;14.43;;;2.60;62.40;;;;;;5012795;28;20193;-87
2022/03/10 05:08:01;;;;;;;20.47;15.33;;;2.50;62.20;;;;;;5019341;28;20201;-87
2022/03/10 05:10:27;;;;;;;18.53;15.30;;;2.40;62.50;;;;;;5020762;28;20217;-87
2022/03/10 05:13:00;;;;;;;18.33;15.23;;;2.40;62.30;;;;;;5035872;28;20177;-87
2022/03/10 05:15:28;;;;;;;20.47;15.10;;;2.30;62.70;;;;;;5027549;28;20190;-87
2022/03/10 05:17:54;;;;;;;17.07;14.73;;;2.40;62.70;;;;;;5019395;28;20189;-88
2022/03/10 05:20:20;;;;;;;19.73;15.13;;;2.40;63.00;;;;;;5020070;28;20292;-88
2022/03/10 05:22:51;;;;;;;17.83;15.93;;;2.30;62.70;;;;;;5020571;28;20224;-88
2022/03/10 05:25:18;;;;;;;19.37;15.97;;;2.40;62.40;;;;;;5020888;28;20675;-88
2022/03/10 05:27:45;;;;;;;17.73;14.60;;;2.40;62.30;;;;;;5020558;28;20182;-87
2022/03/10 05:30:13;;;;;;;19.17;15.03;;;2.40;62.60;;;;;;5016152;28;20224;-88
2022/03/10 05:32:39;;;;;;;20.07;15.93;;;2.30;62.60;;;;;;5021114;28;20203;-88
2022/03/10 05:35:06;;;;;;;17.13;15.23;;;2.40;63.10;;;;;;5020983;28;20643;-87
2022/03/10 05:37:34;;;;;;;21.27;16.00;;;2.40;62.40;;;;;;5015701;28;20224;-88
2022/03/10 05:40:00;;;;;;;17.80;15.50;;;2.30;62.90;;;;;;5008918;28;20206;-87
2022/03/10 05:42:26;;;;;;;17.87;14.60;;;2.30;63.10;;;;;;5021312;28;20252;-88
2022/03/10 05:44:52;;;;;;;20.93;15.50;;;2.20;63.00;;;;;;5010341;28;20285;-88
2022/03/10 05:47:18;;;;;;;20.73;16.43;;;2.20;62.90;;;;;;5022608;28;20210;-87
2022/03/10 05:49:44;;;;;;;16.93;14.53;;;2.20;63.00;;;;;;5021164;28;20288;-87
2022/03/10 05:52:09;;;;;;;19.23;15.83;;;2.20;63.60;;;;;;5021101;28;20224;-87
2022/03/10 05:54:36;;;;;;;20.87;16.83;;;2.20;63.30;;;;;;5014073;28;20214;-88
2022/03/10 05:57:02;;;;;;;18.67;16.67;;;2.20;63.90;;;;;;5018417;28;20225;-87
2022/03/10 05:59:27;;;;;;;20.40;16.20;;;2.20;64.00;;;;;;5026642;28;20194;-87
2022/03/10 06:01:54;;;;;;;24.67;18.97;;;2.30;64.50;;;;;;5014107;28;20213;-87
2022/03/10 06:04:19;;;;;;;20.70;16.90;;;2.30;64.80;;;;;;5012288;28;20181;-87
2022/03/10 06:06:45;;;;;;;20.80;16.33;;;2.20;63.90;;;;;;5022892;28;20220;-88
2022/03/10 06:09:11;;;;;;;18.67;15.93;;;2.20;63.80;;;;;;5030599;28;20220;-88
2022/03/10 06:11:37;;;;;;;20.77;16.00;;;2.20;63.70;;;;;;5025202;28;20224;-87
2022/03/10 06:14:03;;;;;;;19.70;16.47;;;2.20;64.20;;;;;;5035540;28;20209;-87
2022/03/10 06:16:29;;;;;;;20.63;17.13;;;2.30;64.20;;;;;;5032831;28;20229;-87
2022/03/10 06:18:55;;;;;;;22.00;17.33;;;2.30;64.70;;;;;;5010204;28;20637;-87
2022/03/10 06:21:21;;;;;;;27.77;18.20;;;2.30;64.00;;;;;;5024293;28;20220;-87
2022/03/10 06:23:48;;;;;;;20.10;16.23;;;2.20;63.70;;;;;;5024354;28;20193;-87
2022/03/10 06:26:14;;;;;;;21.70;17.37;;;2.20;63.50;;;;;;5024996;28;20260;-87
2022/03/10 06:28:39;;;;;;;22.50;15.60;;;2.30;63.60;;;;;;5024231;28;20205;-87
2022/03/10 06:31:07;;;;;;;20.60;14.77;;;2.20;63.60;;;;;;5026803;28;20222;-87
2022/03/10 06:33:33;;;;;;;20.80;16.27;;;2.30;63.70;;;;;;5025910;28;20202;-88
2022/03/10 06:35:59;;;;;;;21.07;15.57;;;2.30;63.60;;;;;;5026135;28;20237;-87
2022/03/10 06:38:25;;;;;;;19.53;16.17;;;2.20;63.80;;;;;;5021849;28;20672;-87
2022/03/10 06:40:51;;;;;;;23.10;16.70;;;2.20;63.90;;;;;;5027262;28;20211;-89
2022/03/10 06:43:18;;;;;;;21.33;17.80;;;2.20;63.70;;;;;;5021324;28;20190;-87
2022/03/10 06:45:44;;;;;;;21.93;16.60;;;2.10;64.40;;;;;;5024778;28;20205;-87
2022/03/10 06:48:10;;;;;;;20.70;16.30;;;2.10;64.90;;;;;;5014213;28;20602;-87
2022/03/10 06:50:37;;;;;;;25.00;18.03;;;2.10;65.60;;;;;;5013247;28;20217;-88
2022/03/10 06:53:03;;;;;;;20.17;17.53;;;2.10;66.60;;;;;;5006461;28;20274;-87
2022/03/10 06:55:29;;;;;;;22.43;17.33;;;2.10;66.60;;;;;;5017143;28;20265;-88
2022/03/10 06:57:55;;;;;;;19.33;16.20;;;2.20;66.20;;;;;;5008781;28;20223;-88
2022/03/10 07:00:22;;;;;;;21.03;16.73;;;2.20;66.20;;;;;;5025779;28;20201;-87
2022/03/10 07:02:49;;;;;;;23.07;17.47;;;2.40;66.10;;;;;;5022464;28;20222;-87
2022/03/10 07:05:15;;;;;;;21.87;17.17;;;2.50;65.80;;;;;;5023423;28;20190;-87
2022/03/10 07:07:41;;;;;;;24.70;19.27;;;2.40;66.00;;;;;;5024250;28;20190;-87
2022/03/10 07:10:08;;;;;;;22.83;17.90;;;2.50;66.00;;;;;;5015086;28;20217;-87
2022/03/10 07:12:39;;;;;;;25.70;20.67;;;2.70;65.90;;;;;;5015659;28;20224;-87
2022/03/10 07:15:06;;;;;;;21.97;18.17;;;2.70;65.60;;;;;;5018338;28;20208;-87
2022/03/10 07:17:31;;;;;;;23.13;17.53;;;2.70;65.40;;;;;;5020082;28;20236;-88
2022/03/10 07:19:57;;;;;;;23.73;18.90;;;2.70;65.60;;;;;;5019746;28;20194;-87
2022/03/10 07:22:23;;;;;;;23.77;17.90;;;2.80;65.60;;;;;;5019295;28;20336;-87
2022/03/10 07:24:49;;;;;;;26.70;19.93;;;2.90;65.40;;;;;;5019137;28;20188;-87
2022/03/10 07:27:15;;;;;;;24.70;20.23;;;2.90;65.40;;;;;;5016636;28;20202;-88
2022/03/10 07:29:41;;;;;;;24.33;19.40;;;2.90;65.40;;;;;;5027033;28;20240;-88
2022/03/10 07:32:07;;;;;;;27.23;19.43;;;3.00;65.20;;;;;;5025664;28;20271;-87
2022/03/10 07:34:33;;;;;;;20.53;17.70;;;3.00;65.50;;;;;;5019862;28;20205;-87
2022/03/10 07:36:58;;;;;;;22.37;18.47;;;3.00;65.40;;;;;;5022881;28;20364;-87
2022/03/10 07:39:24;;;;;;;26.47;19.97;;;3.10;65.00;;;;;;5020198;28;20823;-88
2022/03/10 07:41:50;;;;;;;22.50;19.00;;;3.20;64.70;;;;;;5016305;28;20688;-87
2022/03/10 07:44:15;;;;;;;30.77;21.27;;;3.30;64.20;;;;;;5014864;28;20189;-87
2022/03/10 07:46:41;;;;;;;29.83;20.20;;;3.30;64.20;;;;;;5006069;28;20224;-87
2022/03/10 07:49:08;;;;;;;27.33;19.93;;;3.40;64.30;;;;;;5009416;28;20257;-87
2022/03/10 07:51:35;;;;;;;26.70;20.30;;;3.30;64.00;;;;;;5012754;28;20217;-87
2022/03/10 07:54:01;;;;;;;25.47;19.73;;;3.40;63.40;;;;;;5020262;28;20225;-87
2022/03/10 07:56:26;;;;;;;29.27;20.63;;;3.50;62.80;;;;;;5016526;28;20221;-87
2022/03/10 07:58:52;;;;;;;23.60;19.30;;;3.60;62.30;;;;;;5022879;28;20245;-87
2022/03/10 08:01:18;;;;;;;25.77;19.13;;;3.60;62.20;;;;;;5032454;28;20700;-87
2022/03/10 08:03:47;;;;;;;25.77;21.30;;;3.60;61.60;;;;;;5018049;28;20189;-88
2022/03/10 08:06:13;;;;;;;23.00;18.87;;;3.60;62.10;;;;;;5013783;28;20211;-87
2022/03/10 08:08:39;;;;;;;23.47;18.97;;;3.50;61.90;;;;;;5040981;28;20201;-88
2022/03/10 08:11:08;;;;;;;25.47;20.77;;;3.60;60.40;;;;;;5023786;28;20213;-88
2022/03/10 08:13:34;;;;;;;27.27;19.60;;;3.60;61.20;;;;;;5030030;28;20186;-87
2022/03/10 08:16:00;;;;;;;25.47;18.77;;;3.60;61.20;;;;;;5024241;28;20216;-88
2022/03/10 08:18:27;;;;;;;25.23;19.87;;;3.60;61.60;;;;;;5022246;28;20243;-88
2022/03/10 08:20:54;;;;;;;26.23;20.13;;;3.70;62.00;;;;;;5022469;28;20206;-87
2022/03/10 08:23:20;;;;;;;24.83;19.13;;;3.80;62.20;;;;;;5004122;28;20197;-88
2022/03/10 08:25:46;;;;;;;25.43;19.57;;;3.80;62.00;;;;;;5021088;28;20210;-88
2022/03/10 08:28:12;;;;;;;29.93;20.93;;;3.90;61.00;;;;;;5020756;28;20189;-88
2022/03/10 08:30:38;;;;;;;25.07;19.37;;;4.00;61.30;;;;;;5023008;28;20228;-88
2022/03/10 08:33:07;;;;;;;32.53;20.00;;;4.00;60.60;;;;;;5006302;28;20194;-86
2022/03/10 08:35:33;;;;;;;23.73;19.03;;;4.20;58.90;;;;;;5025954;28;20283;-86
2022/03/10 08:37:58;;;;;;;24.63;21.13;;;4.30;59.00;;;;;;5020769;28;20213;-88
2022/03/10 08:40:24;;;;;;;28.63;19.30;;;4.50;59.00;;;;;;5018529;28;20289;-88
2022/03/10 08:42:51;;;;;;;26.53;19.93;;;4.50;56.90;;;;;;5032634;28;20189;-88
2022/03/10 08:45:17;;;;;;;25.53;18.43;;;4.70;57.30;;;;;;5017970;28;20321;-88
2022/03/10 08:47:44;;;;;;;24.90;18.97;;;4.80;55.70;;;;;;5015676;28;20193;-88
2022/03/10 08:50:11;;;;;;;23.23;18.60;;;4.80;54.50;;;;;;5015839;28;20224;-89
2022/03/10 08:52:39;;;;;;;23.23;19.50;;;4.90;54.00;;;;;;5009778;28;20210;-89
2022/03/10 08:55:05;;;;;;;25.03;19.10;;;5.00;54.60;;;;;;5019845;28;20184;-88
2022/03/10 08:57:32;;;;;;;27.07;19.53;;;5.10;53.80;;;;;;5020059;28;20271;-88
2022/03/10 08:59:58;;;;;;;23.77;18.50;;;5.30;53.00;;;;;;5021001;28;20177;-88
2022/03/10 09:02:24;;;;;;;26.43;20.03;;;5.50;52.70;;;;;;5011750;28;20194;-89
2022/03/10 09:04:50;;;;;;;25.53;18.37;;;5.60;51.60;;;;;;5016493;28;20212;-88
2022/03/10 09:07:16;;;;;;;25.60;20.53;;;5.60;52.10;;;;;;5015814;28;20201;-88
2022/03/10 09:09:42;;;;;;;23.37;19.33;;;5.70;51.00;;;;;;5020295;28;20209;-89
2022/03/10 09:12:08;;;;;;;24.70;19.67;;;5.80;51.20;;;;;;5018058;28;20206;-88
2022/03/10 09:14:34;;;;;;;28.53;19.80;;;6.00;50.70;;;;;;5022166;28;20197;-89
2022/03/10 09:17:00;;;;;;;23.17;18.70;;;6.10;50.00;;;;;;5022374;28;20212;-89
2022/03/10 09:19:26;;;;;;;21.17;18.40;;;6.30;49.80;;;;;;5029020;28;20204;-88
2022/03/10 09:21:52;;;;;;;23.83;18.43;;;6.50;48.60;;;;;;5009722;28;20222;-88
2022/03/10 09:24:18;;;;;;;21.73;18.93;;;6.60;48.60;;;;;;5028559;28;20200;-89
2022/03/10 09:26:44;;;;;;;24.00;19.43;;;6.70;49.00;;;;;;5015499;28;20272;-89
2022/03/10 09:29:11;;;;;;;26.40;18.63;;;6.90;47.70;;;;;;5019810;28;20245;-90
2022/03/10 09:31:37;;;;;;;25.90;18.60;;;7.00;47.80;;;;;;5021999;28;20708;-89
2022/03/10 09:34:04;;;;;;;25.00;18.87;;;7.20;47.50;;;;;;5020803;28;20287;-89
2022/03/10 09:36:30;;;;;;;24.47;18.53;;;7.40;46.10;;;;;;5022345;28;20233;-90
2022/03/10 09:38:57;;;;;;;22.73;18.40;;;7.60;45.60;;;;;;5018987;28;20726;-89
2022/03/10 09:41:22;;;;;;;25.00;19.07;;;7.80;45.30;;;;;;5022551;28;20212;-89
2022/03/10 09:43:49;;;;;;;23.50;17.47;;;8.10;44.80;;;;;;5009792;28;20213;-89
2022/03/10 09:46:15;;;;;;;22.73;18.10;;;8.30;44.60;;;;;;5031329;28;20205;-88
2022/03/10 09:48:41;;;;;;;25.40;19.17;;;8.50;43.50;;;;;;5014554;28;20206;-89
2022/03/10 09:51:08;;;;;;;26.37;19.10;;;8.70;43.80;;;;;;5040567;28;20227;-89
2022/03/10 09:53:35;;;;;;;26.87;19.10;;;8.80;43.10;;;;;;5023431;28;20200;-87
2022/03/10 09:56:02;;;;;;;24.37;17.70;;;9.00;42.70;;;;;;5028949;28;20206;-87
2022/03/10 09:58:30;;;;;;;22.53;19.27;;;9.20;42.40;;;;;;5026311;28;20226;-88
2022/03/10 10:01:08;;;;;;;21.80;17.83;;;9.40;41.90;;;;;;5025484;28;20221;-88
2022/03/10 10:03:34;;;;;;;19.17;17.00;;;9.60;41.30;;;;;;5020233;28;20240;-88
2022/03/10 10:06:01;;;;;;;22.27;18.13;;;9.70;41.40;;;;;;4989055;28;20185;-88
2022/03/10 10:08:31;;;;;;;25.77;19.07;;;9.90;41.00;;;;;;5023154;28;20222;-88
2022/03/10 10:10:59;;;;;;;20.33;17.37;;;10.10;40.30;;;;;;5025698;28;20247;-88
2022/03/10 10:13:31;;;;;;;23.20;18.17;;;10.30;41.00;;;;;;5021807;28;20201;-88
2022/03/10 10:16:04;;;;;;;25.03;18.80;;;10.60;40.50;;;;;;5023291;28;20213;-88
2022/03/10 10:18:31;;;;;;;22.20;18.37;;;10.70;40.10;;;;;;5022835;28;20227;-89
2022/03/10 10:20:57;;;;;;;20.73;17.97;;;10.90;40.30;;;;;;5024671;28;20260;-88
2022/03/10 10:23:28;;;;;;;19.77;17.43;;;11.20;39.30;;;;;;5021215;28;21516;-89
2022/03/10 10:25:59;;;;;;;23.00;17.57;;;11.50;38.80;;;;;;5024069;28;20263;-88
2022/03/10 10:28:32;;;;;;;19.20;17.03;;;11.70;38.50;;;;;;5026720;28;20205;-88
2022/03/10 10:31:22;;;;;;;20.17;17.40;;;11.70;38.50;;;;;;5024329;28;20205;-88
2022/03/10 10:34:01;;;;;;;19.47;15.93;;;12.00;38.40;;;;;;5023365;28;20286;-88
2022/03/10 10:36:32;;;;;;;20.30;17.90;;;12.30;37.80;;;;;;5021404;28;20203;-88
2022/03/10 10:39:13;;;;;;;17.80;15.57;;;12.60;37.70;;;;;;5023878;28;20202;-89
2022/03/10 10:41:41;;;;;;;18.53;16.13;;;12.90;37.30;;;;;;5022523;28;20304;-88
2022/03/10 10:44:09;;;;;;;18.43;16.53;;;13.10;36.90;;;;;;5023400;28;20180;-88
2022/03/10 10:46:41;;;;;;;18.20;16.30;;;13.20;36.50;;;;;;5023002;28;20215;-88
2022/03/10 10:49:14;;;;;;;17.53;15.47;;;13.20;36.50;;;;;;5021924;28;20193;-88
2022/03/10 10:51:46;;;;;;;17.50;15.07;;;13.60;36.30;;;;;;5028240;28;20281;-87
2022/03/10 10:54:21;;;;;;;15.13;12.10;;;14.00;35.10;;;;;;5020977;28;20562;-86
2022/03/10 10:56:56;;;;;;;15.17;11.00;;;14.30;33.30;;;;;;5025280;28;20292;-86
2022/03/10 10:59:38;;;;;;;16.23;11.73;;;14.50;32.40;;;;;;5018595;28;20183;-88
2022/03/10 11:02:10;;;;;;;10.30;9.13;;;14.80;32.00;;;;;;5018750;28;20223;-86
2022/03/10 11:04:38;;;;;;;11.43;7.80;;;15.00;31.10;;;;;;5020333;28;20841;-87
2022/03/10 11:07:04;;;;;;;10.27;8.90;;;15.20;29.90;;;;;;5020562;28;20203;-86
2022/03/10 11:09:33;;;;;;;9.47;8.53;;;15.30;29.60;;;;;;5023647;28;20198;-87
2022/03/10 11:11:59;;;;;;;11.67;9.13;;;15.40;29.20;;;;;;5019611;28;20706;-88
2022/03/10 11:14:26;;;;;;;9.97;8.50;;;15.60;29.40;;;;;;5019108;28;20229;-88
2022/03/10 11:16:52;;;;;;;8.83;7.93;;;15.60;28.60;;;;;;5021339;28;20255;-88
2022/03/10 11:19:25;;;;;;;7.70;6.93;;;15.60;28.90;;;;;;5020750;28;20181;-89
2022/03/10 11:22:19;;;;;;;6.87;6.20;;;15.70;28.70;;;;;;5019039;28;20224;-89
2022/03/10 11:25:22;;;;;;;6.80;6.00;;;16.00;28.10;;;;;;5022617;28;20275;-88
2022/03/10 11:28:03;;;;;;;6.20;5.60;;;16.40;27.50;;;;;;5036293;28;20187;-86
2022/03/10 11:30:30;;;;;;;6.20;5.60;;;16.80;27.00;;;;;;5020286;28;20229;-88
2022/03/10 11:33:12;;;;;;;6.57;5.23;;;17.00;27.30;;;;;;5021823;28;20227;-86
2022/03/10 11:35:43;;;;;;;5.53;5.03;;;16.90;26.70;;;;;;5020640;28;20192;-87
2022/03/10 11:38:10;;;;;;;6.33;5.07;;;17.10;26.60;;;;;;5020967;28;20203;-87
2022/03/10 11:40:43;;;;;;;9.10;5.53;;;17.20;26.30;;;;;;5020735;28;20250;-86
2022/03/10 11:43:10;;;;;;;5.50;5.00;;;17.50;26.20;;;;;;5039945;28;20224;-87
2022/03/10 11:45:36;;;;;;;6.77;5.80;;;17.70;25.60;;;;;;5027641;28;20189;-87
2022/03/10 11:48:23;;;;;;;10.03;7.43;;;17.80;25.70;;;;;;5018344;28;20198;-85
2022/03/10 11:50:52;;;;;;;8.87;7.40;;;17.60;25.60;;;;;;5021828;28;20240;-86
2022/03/10 11:53:18;;;;;;;8.27;7.47;;;17.70;26.10;;;;;;5005815;28;20557;-86
2022/03/10 11:55:48;;;;;;;8.13;7.33;;;17.80;25.90;;;;;;5022512;28;20372;-86
2022/03/10 11:58:16;;;;;;;8.10;7.30;;;17.90;26.00;;;;;;5020207;28;20189;-86
2022/03/10 12:00:44;;;;;;;12.30;8.00;;;18.00;26.10;;;;;;5022859;28;20260;-85
2022/03/10 12:03:25;;;;;;;9.03;8.13;;;17.90;26.10;;;;;;5020755;28;20187;-86
2022/03/10 12:05:51;;;;;;;9.13;7.67;;;17.90;26.30;;;;;;5019762;28;20204;-86
2022/03/10 12:08:21;;;;;;;8.70;7.80;;;18.10;25.50;;;;;;5029214;28;20706;-86
2022/03/10 12:10:50;;;;;;;9.53;8.63;;;17.80;25.50;;;;;;5020119;28;20216;-86
2022/03/10 12:13:39;;;;;;;10.93;8.60;;;18.00;26.20;;;;;;5020174;28;20217;-86
2022/03/10 12:16:06;;;;;;;10.20;9.17;;;18.60;25.60;;;;;;5010599;28;20437;-87
2022/03/10 12:18:41;;;;;;;16.60;9.93;;;18.80;25.40;;;;;;5019823;28;20206;-87
2022/03/10 12:21:24;;;;;;;13.03;9.37;;;18.60;25.50;;;;;;5020628;28;20298;-86
2022/03/10 12:24:01;;;;;;;10.03;7.17;;;18.70;25.50;;;;;;5029144;28;20405;-86
2022/03/10 12:26:27;;;;;;;9.45;8.45;;;18.90;24.80;;;;;;5017347;28;20197;-86
2022/03/10 12:28:58;;;;;;;9.30;8.40;;;19.30;24.70;;;;;;5021551;28;20205;-86
2022/03/10 12:31:27;;;;;;;9.23;8.30;;;19.50;24.50;;;;;;5020415;28;20212;-86
2022/03/10 12:33:59;;;;;;;10.93;8.07;;;20.00;24.30;;;;;;5022246;28;20200;-86
2022/03/10 12:36:35;;;;;;;25.73;9.30;;;20.00;23.40;;;;;;5036455;28;20213;-85
2022/03/10 12:39:14;;;;;;;10.50;8.35;;;19.80;23.70;;;;;;5025065;28;20219;-86
2022/03/10 12:41:42;;;;;;;9.40;8.35;;;19.60;23.80;;;;;;5024636;28;20204;-86
2022/03/10 12:44:10;;;;;;;6.25;5.72;;;19.60;24.50;;;;;;5006828;28;20178;-86
2022/03/10 12:46:38;;;;;;;6.93;6.30;;;19.90;22.00;;;;;;5007765;28;20213;-86
2022/03/10 12:49:07;;;;;;;8.05;7.35;;;20.10;22.70;;;;;;5022169;28;20201;-87